Time;durP1;ratioP1;P1;durP2;ratioP2;P2;SDS_P1;SDS_P2;PMS_P1;PMS_P2;Temp;Humidity;BMP_temperature;BMP_pressure;BME280_temperature;BME280_humidity;BME280_pressure;Samples;Min_cycle;Max_cycle;Signal;HPM_P1;HPM_P2
2021/07/01 00:00:43;;;;;;;2.67;1.17;;;;;;;11.66;100.00;100112.28;6226274;22;20065;-62
2021/07/01 00:03:46;;;;;;;1.52;1.25;;;;;;;11.55;100.00;100126.00;6227088;22;20406;-62
2021/07/01 00:06:50;;;;;;;2.70;1.50;;;;;;;11.59;100.00;100114.66;6225177;22;20850;-62
2021/07/01 00:09:54;;;;;;;2.38;1.70;;;;;;;11.59;100.00;100118.22;6228291;22;20018;-62
2021/07/01 00:12:57;;;;;;;1.90;0.70;;;;;;;11.61;100.00;100117.78;6228495;22;20030;-62
2021/07/01 00:16:01;;;;;;;2.15;1.13;;;;;;;11.71;100.00;100125.63;6225354;22;20503;-59
2021/07/01 00:19:05;;;;;;;6.07;2.17;;;;;;;11.74;100.00;100119.06;6224890;22;20197;-61
2021/07/01 00:22:08;;;;;;;4.45;1.88;;;;;;;11.81;100.00;100110.34;6225141;22;20611;-59
2021/07/01 00:25:13;;;;;;;2.50;1.17;;;;;;;11.90;100.00;100112.28;6224735;22;20030;-59
2021/07/01 00:28:17;;;;;;;7.05;2.15;;;;;;;11.99;100.00;100115.78;6224959;22;20019;-59
2021/07/01 00:31:21;;;;;;;3.35;1.25;;;;;;;12.09;100.00;100113.66;6224465;22;20030;-58
2021/07/01 00:34:25;;;;;;;10.45;1.52;;;;;;;12.14;100.00;100116.56;6205708;22;20364;-58
2021/07/01 00:37:29;;;;;;;4.47;1.73;;;;;;;12.17;100.00;100110.00;6224719;22;20237;-59
2021/07/01 00:40:33;;;;;;;2.88;1.23;;;;;;;12.17;100.00;100109.25;6224071;22;20019;-59
2021/07/01 00:43:37;;;;;;;2.05;0.95;;;;;;;12.20;100.00;100113.84;6224030;22;20146;-62
2021/07/01 00:46:40;;;;;;;2.92;0.95;;;;;;;12.23;100.00;100118.50;6222249;22;20252;-62
2021/07/01 00:49:44;;;;;;;3.15;1.27;;;;;;;12.23;100.00;100123.31;6203953;22;20055;-61
2021/07/01 00:52:48;;;;;;;5.25;1.40;;;;;;;12.21;100.00;100125.81;6222544;22;20373;-59
2021/07/01 00:55:51;;;;;;;1.63;0.90;;;;;;;12.22;100.00;100130.91;6223714;22;20518;-61
2021/07/01 00:58:55;;;;;;;8.32;1.20;;;;;;;12.18;100.00;100122.72;6224124;22;20312;-61
2021/07/01 01:01:59;;;;;;;2.58;1.40;;;;;;;12.21;100.00;100126.56;6223215;22;20034;-61
2021/07/01 01:05:03;;;;;;;2.95;1.38;;;;;;;12.23;100.00;100132.44;6222610;22;20543;-62
2021/07/01 01:08:07;;;;;;;4.18;1.38;;;;;;;12.24;100.00;100133.19;6263010;22;20030;-62
2021/07/01 01:11:10;;;;;;;2.97;1.02;;;;;;;12.30;100.00;100139.69;6287121;22;20038;-61
2021/07/01 01:14:13;;;;;;;1.77;0.77;;;;;;;12.33;100.00;100136.69;6287077;22;20038;-61
2021/07/01 01:17:17;;;;;;;3.20;1.00;;;;;;;12.38;100.00;100135.25;6286358;22;20337;-61
2021/07/01 01:20:20;;;;;;;2.20;1.00;;;;;;;12.38;100.00;100130.44;6287149;22;20027;-61
2021/07/01 01:23:25;;;;;;;7.13;1.77;;;;;;;12.39;100.00;100125.63;6287369;22;20023;-61
2021/07/01 01:26:28;;;;;;;4.55;0.80;;;;;;;12.41;100.00;100128.72;6286760;22;20038;-62
2021/07/01 01:29:32;;;;;;;2.53;0.85;;;;;;;12.42;100.00;100125.44;6287036;22;20346;-61
2021/07/01 01:32:35;;;;;;;2.42;1.67;;;;;;;12.52;100.00;100128.88;6286972;22;20348;-61
2021/07/01 01:35:39;;;;;;;1.75;1.35;;;;;;;12.51;100.00;100121.75;6286097;22;20467;-61
2021/07/01 01:38:43;;;;;;;1.98;0.90;;;;;;;12.50;100.00;100109.03;6286731;22;20027;-62
2021/07/01 01:41:47;;;;;;;3.22;1.20;;;;;;;12.51;100.00;100121.75;6287340;22;20372;-61
2021/07/01 01:44:50;;;;;;;7.55;2.13;;;;;;;12.48;100.00;100117.13;6286845;22;20070;-61
2021/07/01 01:47:53;;;;;;;4.50;1.52;;;;;;;12.47;100.00;100121.97;6286987;22;20018;-61
2021/07/01 01:50:57;;;;;;;2.78;1.35;;;;;;;12.51;100.00;100124.56;6283057;22;20030;-61
2021/07/01 01:54:01;;;;;;;5.65;1.20;;;;;;;12.54;100.00;100120.81;6287130;22;20019;-61
2021/07/01 01:57:05;;;;;;;7.53;1.90;;;;;;;12.54;100.00;100120.81;6285893;22;20027;-61
2021/07/01 02:00:09;;;;;;;5.93;1.80;;;;;;;12.56;100.00;100118.31;6286702;22;20712;-61
2021/07/01 02:03:13;;;;;;;5.32;1.42;;;;;;;12.57;100.00;100126.19;6286188;22;20031;-61
2021/07/01 02:06:16;;;;;;;4.10;1.52;;;;;;;12.63;100.00;100120.69;6286893;22;20022;-61
2021/07/01 02:09:20;;;;;;;8.55;1.63;;;;;;;12.65;100.00;100123.75;6286384;22;20451;-61
2021/07/01 02:12:25;;;;;;;4.80;1.73;;;;;;;12.65;100.00;100120.97;6286542;22;20309;-61
2021/07/01 02:15:28;;;;;;;4.95;1.42;;;;;;;12.67;100.00;100129.63;6286119;22;20846;-61
2021/07/01 02:18:32;;;;;;;13.63;1.58;;;;;;;12.70;100.00;100117.50;6286754;22;20067;-61
2021/07/01 02:21:35;;;;;;;5.70;1.70;;;;;;;12.72;100.00;100131.75;6286532;22;20024;-58
2021/07/01 02:24:39;;;;;;;2.72;0.70;;;;;;;12.71;100.00;100127.44;6286726;22;20026;-59
2021/07/01 02:27:43;;;;;;;3.42;1.42;;;;;;;12.73;100.00;100117.28;6286327;22;20022;-58
2021/07/01 02:30:47;;;;;;;6.43;2.25;;;;;;;12.72;100.00;100132.53;6286607;22;20064;-58
2021/07/01 02:33:50;;;;;;;3.10;1.00;;;;;;;12.75;100.00;100125.22;6286328;22;20023;-58
2021/07/01 02:36:53;;;;;;;15.77;1.80;;;;;;;12.75;100.00;100116.84;6286859;22;20026;-58
2021/07/01 02:39:56;;;;;;;7.45;2.17;;;;;;;12.74;100.00;100118.06;6267674;22;20019;-58
2021/07/01 02:43:00;;;;;;;10.70;1.67;;;;;;;12.73;100.00;100113.75;6286731;22;20026;-58
2021/07/01 02:46:03;;;;;;;4.18;1.73;;;;;;;12.70;100.00;100123.09;6286676;22;20008;-58
2021/07/01 02:49:06;;;;;;;4.05;2.15;;;;;;;12.69;100.00;100115.97;6286490;22;20031;-58
2021/07/01 02:52:10;;;;;;;6.15;1.88;;;;;;;12.71;100.00;100113.47;6277326;22;20471;-59
2021/07/01 02:55:14;;;;;;;4.80;1.90;;;;;;;12.70;100.00;100100.75;6286259;22;20019;-58
2021/07/01 02:58:17;;;;;;;7.55;1.83;;;;;;;12.70;100.00;100106.31;6286399;22;20447;-58
2021/07/01 03:01:21;;;;;;;15.25;2.75;;;;;;;12.67;100.00;100108.06;6286496;22;20356;-58
2021/07/01 03:04:24;;;;;;;5.55;1.58;;;;;;;12.66;100.00;100111.34;6286312;22;20015;-58
2021/07/01 03:07:27;;;;;;;5.03;2.30;;;;;;;12.59;100.00;100101.34;6286007;22;20023;-58
2021/07/01 03:10:31;;;;;;;3.47;1.10;;;;;;;12.56;100.00;100096.69;6285842;22;20023;-58
2021/07/01 03:13:35;;;;;;;6.13;1.88;;;;;;;12.55;100.00;100095.19;6285462;22;20042;-59
2021/07/01 03:16:38;;;;;;;7.22;2.20;;;;;;;12.56;100.00;100105.09;6285529;22;20348;-58
2021/07/01 03:19:42;;;;;;;10.00;2.42;;;;;;;12.56;100.00;100099.50;6285740;22;20026;-58
2021/07/01 03:22:45;;;;;;;6.40;2.88;;;;;;;12.54;100.00;100107.59;6286347;22;20020;-58
2021/07/01 03:25:48;;;;;;;5.85;1.60;;;;;;;12.57;100.00;100105.84;6285971;22;20038;-58
2021/07/01 03:28:52;;;;;;;5.45;2.10;;;;;;;12.56;100.00;100107.13;6286519;22;20018;-58
2021/07/01 03:31:56;;;;;;;3.75;2.17;;;;;;;12.56;100.00;100102.28;6286037;22;20391;-58
2021/07/01 03:34:59;;;;;;;6.40;2.50;;;;;;;12.61;100.00;100104.41;6286046;22;20451;-58
2021/07/01 03:38:03;;;;;;;7.22;2.95;;;;;;;12.66;100.00;100105.75;6285660;22;20027;-58
2021/07/01 03:41:07;;;;;;;5.75;1.95;;;;;;;12.74;100.00;100106.91;6286076;22;20031;-58
2021/07/01 03:44:12;;;;;;;5.10;2.03;;;;;;;12.70;100.00;100104.31;6285532;22;20043;-58
2021/07/01 03:47:15;;;;;;;6.53;2.22;;;;;;;12.79;100.00;100103.44;6286135;22;20018;-59
2021/07/01 03:50:19;;;;;;;7.43;2.53;;;;;;;12.72;100.00;100115.00;6284884;22;20026;-58
2021/07/01 03:53:22;;;;;;;5.57;2.10;;;;;;;12.68;100.00;100111.63;6286249;22;20316;-58
2021/07/01 03:56:26;;;;;;;13.07;1.42;;;;;;;12.68;100.00;100114.44;6285481;22;20018;-58
2021/07/01 03:59:29;;;;;;;5.65;2.03;;;;;;;12.73;100.00;100111.72;6266361;22;20016;-58
2021/07/01 04:02:32;;;;;;;11.13;1.33;;;;;;;12.73;100.00;100111.72;6285370;22;20023;-58
2021/07/01 04:05:35;;;;;;;2.90;1.10;;;;;;;12.75;100.00;100103.63;6285607;22;20016;-58
2021/07/01 04:08:39;;;;;;;2.53;1.60;;;;;;;12.75;100.00;100105.66;6285349;22;20030;-59
2021/07/01 04:11:42;;;;;;;6.20;1.90;;;;;;;12.77;100.00;100111.53;6285938;22;20047;-58
2021/07/01 04:14:45;;;;;;;10.93;2.70;;;;;;;12.79;100.00;100109.78;6285649;22;20027;-59
2021/07/01 04:17:49;;;;;;;4.80;1.77;;;;;;;12.80;100.00;100102.94;6286033;22;20016;-59
2021/07/01 04:20:52;;;;;;;20.73;2.65;;;;;;;12.84;100.00;100111.13;6286308;22;20042;-58
2021/07/01 04:23:57;;;;;;;7.15;1.55;;;;;;;12.87;100.00;100115.75;6288005;22;20492;-58
2021/07/01 04:27:01;;;;;;;6.20;1.50;;;;;;;12.87;100.00;100105.34;6287392;22;20031;-58
2021/07/01 04:30:05;;;;;;;5.80;1.27;;;;;;;12.88;100.00;100106.13;6287795;22;20022;-58
2021/07/01 04:33:09;;;;;;;3.13;2.15;;;;;;;12.88;100.00;100106.88;6287446;22;20027;-58
2021/07/01 04:36:13;;;;;;;5.43;2.10;;;;;;;12.92;100.00;100106.69;6287531;22;20106;-58
2021/07/01 04:39:17;;;;;;;9.93;2.08;;;;;;;12.95;100.00;100102.91;6287524;22;20026;-58
2021/07/01 04:42:20;;;;;;;5.50;2.38;;;;;;;12.99;100.00;100099.91;6287971;22;20478;-58
2021/07/01 04:45:23;;;;;;;6.53;1.63;;;;;;;13.02;100.00;100105.28;6287588;22;20027;-58
2021/07/01 04:48:27;;;;;;;3.00;1.30;;;;;;;13.05;100.00;100109.19;6287688;22;20034;-58
2021/07/01 04:51:30;;;;;;;4.05;1.92;;;;;;;13.09;100.00;100101.34;6281261;22;20031;-58
2021/07/01 04:54:33;;;;;;;3.83;1.83;;;;;;;13.14;100.00;100087.47;6287804;22;20075;-58
2021/07/01 04:57:36;;;;;;;4.38;1.80;;;;;;;13.18;100.00;100096.41;6287295;22;20030;-58
2021/07/01 05:00:41;;;;;;;5.72;1.70;;;;;;;13.22;100.00;100090.59;6287580;22;20026;-58
2021/07/01 05:03:44;;;;;;;6.15;1.92;;;;;;;13.25;100.00;100093.22;6287372;22;20471;-58
2021/07/01 05:06:47;;;;;;;8.70;2.10;;;;;;;13.26;100.00;100097.53;6268749;22;20022;-58
2021/07/01 05:09:51;;;;;;;11.35;2.13;;;;;;;13.33;100.00;100099.16;6287165;22;20023;-58
2021/07/01 05:12:55;;;;;;;4.75;2.00;;;;;;;13.37;100.00;100094.88;6268255;22;20012;-58
2021/07/01 05:15:59;;;;;;;3.80;2.38;;;;;;;13.39;100.00;100099.97;6286858;22;20023;-58
2021/07/01 05:19:02;;;;;;;9.77;2.00;;;;;;;13.39;100.00;100095.16;6286779;22;20038;-58
2021/07/01 05:22:06;;;;;;;7.85;2.67;;;;;;;13.38;100.00;100082.44;6287215;22;20043;-58
2021/07/01 05:25:11;;;;;;;5.15;1.33;;;;;;;13.39;100.00;100092.38;6268248;22;20030;-58
2021/07/01 05:28:14;;;;;;;6.03;2.28;;;;;;;13.42;100.00;100083.00;6287471;22;20317;-58
2021/07/01 05:31:18;;;;;;;6.78;2.53;;;;;;;13.41;100.00;100081.47;6287326;22;20018;-58
2021/07/01 05:34:21;;;;;;;8.70;2.85;;;;;;;13.36;100.00;100082.16;6268487;22;20034;-58
2021/07/01 05:37:25;;;;;;;3.35;1.58;;;;;;;13.36;100.00;100079.34;6286879;22;20027;-58
2021/07/01 05:40:28;;;;;;;6.43;3.30;;;;;;;13.35;100.00;100077.81;6286610;22;20039;-58
2021/07/01 05:43:32;;;;;;;6.97;2.17;;;;;;;13.35;100.00;100080.63;6286018;22;20030;-58
2021/07/01 05:46:35;;;;;;;4.93;1.88;;;;;;;13.41;100.00;100086.28;6286583;22;20030;-58
2021/07/01 05:49:39;;;;;;;5.15;3.35;;;;;;;13.43;100.00;100087.34;6286913;22;20026;-58
2021/07/01 05:52:45;;;;;;;5.80;2.53;;;;;;;13.43;100.00;100078.16;6287105;22;20030;-58
2021/07/01 05:55:48;;;;;;;4.18;1.50;;;;;;;13.45;100.00;100087.59;6286582;22;20075;-58
2021/07/01 05:58:53;;;;;;;10.05;2.83;;;;;;;13.50;100.00;100095.31;6268290;22;20314;-58
2021/07/01 06:01:56;;;;;;;5.45;1.50;;;;;;;13.51;100.00;100091.25;6286670;22;20015;-58
2021/07/01 06:05:00;;;;;;;6.10;2.72;;;;;;;13.52;100.00;100090.00;6287000;22;20026;-58
2021/07/01 06:08:05;;;;;;;2.85;1.77;;;;;;;13.53;100.00;100083.16;6286846;22;20333;-58
2021/07/01 06:11:09;;;;;;;8.10;2.70;;;;;;;13.57;100.00;100088.53;6286652;22;20026;-58
2021/07/01 06:14:13;;;;;;;7.13;1.50;;;;;;;13.60;100.00;100082.72;6287029;22;20023;-58
2021/07/01 06:17:17;;;;;;;7.07;2.22;;;;;;;13.58;100.00;100082.44;6286767;22;20023;-58
2021/07/01 06:20:21;;;;;;;8.57;1.75;;;;;;;13.61;100.00;100095.44;6286378;22;20019;-58
2021/07/01 06:23:24;;;;;;;5.60;1.90;;;;;;;13.66;100.00;100089.13;6286744;22;20027;-58
2021/07/01 06:26:29;;;;;;;9.90;2.10;;;;;;;13.69;100.00;100098.59;6286555;22;20447;-58
2021/07/01 06:29:33;;;;;;;8.57;2.33;;;;;;;13.74;100.00;100088.72;6286589;22;20023;-58
2021/07/01 06:32:45;;;;;;;8.77;2.65;;;;;;;13.82;100.00;100087.78;6286260;22;20027;-58
2021/07/01 06:35:51;;;;;;;5.88;2.38;;;;;;;13.87;100.00;100094.72;6286268;22;20030;-58
2021/07/01 06:38:58;;;;;;;6.72;2.53;;;;;;;13.93;100.00;100095.53;6286524;22;20030;-58
2021/07/01 06:42:03;;;;;;;8.88;3.45;;;;;;;13.95;100.00;100091.00;6286573;22;20030;-58
2021/07/01 06:45:07;;;;;;;6.35;1.80;;;;;;;13.97;100.00;100087.72;6267255;22;20069;-58
2021/07/01 06:48:13;;;;;;;12.98;2.65;;;;;;;13.99;100.00;100093.59;6286491;22;20301;-58
2021/07/01 06:51:18;;;;;;;7.65;2.83;;;;;;;14.03;100.00;100094.13;6280933;22;20028;-58
2021/07/01 06:54:23;;;;;;;7.75;2.80;;;;;;;14.07;100.00;100095.47;6286334;22;20305;-58
2021/07/01 06:57:27;;;;;;;8.65;3.00;;;;;;;14.13;100.00;100099.09;6285903;22;20030;-58
2021/07/01 07:00:31;;;;;;;6.53;2.17;;;;;;;14.16;100.00;100094.53;6286486;22;20034;-58
2021/07/01 07:03:35;;;;;;;9.10;2.78;;;;;;;14.20;100.00;100100.69;6286545;22;20027;-58
2021/07/01 07:06:40;;;;;;;6.68;2.75;;;;;;;14.19;100.00;100099.13;6286298;22;20014;-58
2021/07/01 07:09:44;;;;;;;9.98;2.88;;;;;;;14.18;100.00;100103.22;6285389;22;20023;-58
2021/07/01 07:12:53;;;;;;;12.13;3.33;;;;;;;14.20;100.00;100106.28;6286304;22;20034;-58
2021/07/01 07:16:04;;;;;;;6.47;2.50;;;;;;;14.19;100.00;100101.94;6286395;22;20396;-58
2021/07/01 07:19:11;;;;;;;9.63;2.70;;;;;;;14.17;100.00;100116.44;6266990;22;20030;-58
2021/07/01 07:22:17;;;;;;;7.82;2.83;;;;;;;14.18;100.00;100108.81;6285472;22;20074;-58
2021/07/01 07:25:21;;;;;;;7.20;3.03;;;;;;;14.15;100.00;100104.19;6285679;22;20022;-60
2021/07/01 07:28:26;;;;;;;10.25;2.58;;;;;;;14.10;100.00;100107.69;6285865;22;20038;-60
2021/07/01 07:31:31;;;;;;;10.63;2.78;;;;;;;14.06;100.00;100110.72;6285712;22;20019;-60
2021/07/01 07:34:35;;;;;;;7.80;2.58;;;;;;;14.10;100.00;100102.84;6285634;22;20019;-60
2021/07/01 07:37:38;;;;;;;8.07;3.13;;;;;;;14.11;100.00;100103.63;6286082;22;20027;-61
2021/07/01 07:40:42;;;;;;;8.68;2.60;;;;;;;14.15;100.00;100109.78;6286138;22;20023;-61
2021/07/01 07:43:48;;;;;;;9.40;1.83;;;;;;;14.18;100.00;100111.59;6285511;22;20332;-60
2021/07/01 07:46:53;;;;;;;9.43;2.92;;;;;;;14.21;100.00;100114.19;6285167;22;20022;-60
2021/07/01 07:49:57;;;;;;;10.73;3.33;;;;;;;14.26;100.00;100104.28;6285565;22;20047;-60
2021/07/01 07:53:01;;;;;;;9.50;3.20;;;;;;;14.41;100.00;100116.19;6286152;22;20433;-60
2021/07/01 07:56:07;;;;;;;11.27;3.63;;;;;;;14.57;100.00;100104.38;6287912;22;20349;-60
2021/07/01 07:59:11;;;;;;;10.45;3.03;;;;;;;14.75;100.00;100106.78;6287542;22;20019;-60
2021/07/01 08:02:49;;;;;;;10.18;3.53;;;;;;;14.79;100.00;100095.38;6287856;22;20020;-60
2021/07/01 08:05:55;;;;;;;10.43;2.55;;;;;;;14.93;100.00;100100.81;6268828;22;20337;-60
2021/07/01 08:09:05;;;;;;;7.38;3.22;;;;;;;15.18;100.00;100094.31;6269340;22;20020;-60
2021/07/01 08:12:10;;;;;;;11.93;3.65;;;;;;;15.34;100.00;100094.91;6287070;22;20019;-60
2021/07/01 08:15:15;;;;;;;8.25;4.05;;;;;;;15.34;100.00;100094.91;6287958;22;20320;-60
2021/07/01 08:18:43;;;;;;;7.55;2.58;;;;;;;15.39;100.00;100092.16;6287727;22;20039;-61
2021/07/01 08:21:48;;;;;;;5.78;2.20;;;;;;;15.47;100.00;100092.47;6287314;22;20054;-60
2021/07/01 08:24:52;;;;;;;16.83;4.05;;;;;;;15.54;100.00;100092.00;6287019;22;20026;-60
2021/07/01 08:27:56;;;;;;;11.02;3.45;;;;;;;15.60;100.00;100089.97;6287812;22;20015;-60
2021/07/01 08:31:13;;;;;;;10.25;3.70;;;;;;;15.65;100.00;100092.81;6287921;22;20016;-60
2021/07/01 08:34:21;;;;;;;9.15;3.45;;;;;;;15.78;100.00;100086.72;6287831;22;20019;-61
2021/07/01 08:37:25;;;;;;;15.20;6.18;;;;;;;15.82;100.00;100087.25;6287162;22;20026;-60
2021/07/01 08:40:37;;;;;;;11.48;3.95;;;;;;;15.89;100.00;100092.38;6287602;22;20019;-60
2021/07/01 08:44:08;;;;;;;11.80;4.93;;;;;;;15.91;100.00;100087.78;6287512;22;20015;-61
2021/07/01 08:47:12;;;;;;;;;;;;;;;15.86;100.00;100090.56;6288239;22;20317;-60
2021/07/01 08:50:18;;;;;;;15.50;4.18;;;;;;;15.83;100.00;100089.53;6287174;22;20308;-60
2021/07/01 08:53:56;;;;;;;14.48;5.13;;;;;;;15.85;100.00;100089.06;6287629;22;20012;-60
2021/07/01 08:57:02;;;;;;;17.50;5.40;;;;;;;15.82;100.00;100092.88;6287727;22;20020;-60
2021/07/01 09:00:10;;;;;;;27.73;4.95;;;;;;;15.98;100.00;100092.16;6287624;22;20020;-61
2021/07/01 09:03:16;;;;;;;16.50;4.15;;;;;;;16.15;100.00;100087.34;6287351;22;20066;-61
2021/07/01 09:06:24;;;;;;;8.85;3.35;;;;;;;16.26;100.00;100090.16;6286745;22;20011;-64
2021/07/01 09:09:35;;;;;;;22.83;4.72;;;;;;;16.35;100.00;100084.28;6286817;22;20672;-61
2021/07/01 09:12:42;;;;;;;12.45;3.25;;;;;;;16.47;100.00;100083.03;6286639;22;20019;-61
2021/07/01 09:15:47;;;;;;;11.80;3.90;;;;;;;16.51;100.00;100089.19;6287542;22;20016;-61
2021/07/01 09:18:53;;;;;;;16.77;5.05;;;;;;;16.64;100.00;100075.38;6287600;22;20437;-60
2021/07/01 09:21:59;;;;;;;17.70;5.57;;;;;;;16.89;100.00;100084.06;6287707;22;20016;-60
2021/07/01 09:25:04;;;;;;;18.08;5.28;;;;;;;16.99;100.00;100079.69;6286996;22;20015;-61
2021/07/01 09:28:07;;;;;;;20.88;6.82;;;;;;;17.10;100.00;100076.84;6287242;22;20020;-60
2021/07/01 09:31:15;;;;;;;14.48;4.47;;;;;;;17.28;100.00;100076.31;6287204;22;20015;-60
2021/07/01 09:34:18;;;;;;;15.52;4.90;;;;;;;17.57;100.00;100069.28;6287478;22;20019;-60
2021/07/01 09:37:23;;;;;;;9.98;3.72;;;;;;;17.81;100.00;100072.25;6286741;22;20015;-61
2021/07/01 09:40:27;;;;;;;25.33;5.82;;;;;;;17.94;100.00;100078.84;6287191;22;20137;-61
2021/07/01 09:43:30;;;;;;;15.93;6.18;;;;;;;17.96;100.00;100073.47;6286636;22;20016;-61
2021/07/01 09:46:36;;;;;;;16.00;5.03;;;;;;;17.93;100.00;100070.94;6286529;22;20340;-61
2021/07/01 09:49:41;;;;;;;18.48;5.28;;;;;;;18.01;100.00;100064.22;6286105;22;20019;-61
2021/07/01 09:52:45;;;;;;;21.73;4.90;;;;;;;18.25;100.00;100059.94;6286829;22;20019;-61
2021/07/01 09:55:51;;;;;;;16.65;4.00;;;;;;;18.37;100.00;100067.03;6287171;22;20027;-61
2021/07/01 09:59:01;;;;;;;17.98;5.68;;;;;;;18.41;100.00;100059.81;6287350;22;20020;-61
2021/07/01 10:02:22;;;;;;;20.63;5.63;;;;;;;18.53;100.00;100063.34;6286195;22;20015;-61
2021/07/01 10:05:28;;;;;;;20.35;5.55;;;;;;;18.56;100.00;100059.50;6285651;22;20019;-58
2021/07/01 10:08:38;;;;;;;19.35;3.85;;;;;;;18.37;100.00;100067.03;6286331;22;20015;-58
2021/07/01 10:11:43;;;;;;;;;;;;;;;18.44;100.00;100064.44;6287074;22;20011;-58
2021/07/01 10:14:48;;;;;;;20.02;4.63;;;;;;;18.50;100.00;100067.97;6285476;22;19907;-58
2021/07/01 10:18:03;;;;;;;13.55;4.40;;;;;;;18.55;100.00;100072.81;6286285;22;20016;-57
2021/07/01 10:21:14;;;;;;;15.93;4.50;;;;;;;18.51;100.00;100069.53;6287016;22;20016;-58
2021/07/01 10:24:21;;;;;;;19.42;4.85;;;;;;;18.49;100.00;100074.16;6287006;22;20020;-58
2021/07/01 10:27:30;;;;;;;16.55;4.82;;;;;;;18.66;100.00;100072.72;6286358;22;20007;-58
2021/07/01 10:30:35;;;;;;;13.32;4.65;;;;;;;18.81;100.00;100072.34;6286486;22;20019;-58
2021/07/01 10:33:41;;;;;;;19.20;5.63;;;;;;;18.86;100.00;100071.53;6267487;22;20023;-58
2021/07/01 10:36:44;;;;;;;17.83;5.32;;;;;;;18.89;100.00;100073.28;6266713;22;20016;-58
2021/07/01 10:39:50;;;;;;;18.23;5.47;;;;;;;19.00;100.00;100067.53;6285865;22;20342;-58
2021/07/01 10:42:55;;;;;;;22.83;4.57;;;;;;;19.10;100.00;100067.94;6286033;22;20019;-58
2021/07/01 10:45:59;;;;;;;17.55;5.60;;;;;;;19.02;100.00;100064.94;6286375;22;20016;-58
2021/07/01 10:49:04;;;;;;;19.85;6.28;;;;;;;19.07;100.00;100064.13;6286539;22;20012;-58
2021/07/01 10:52:07;;;;;;;21.73;5.05;;;;;;;19.39;100.00;100062.25;6277449;22;20452;-58
2021/07/01 10:55:13;;;;;;;28.88;4.60;;;;;;;19.45;100.00;100062.94;6286437;22;20015;-58
2021/07/01 10:58:20;;;;;;;12.55;3.80;;;;;;;19.41;100.00;100056.81;6286411;22;20019;-58
2021/07/01 11:01:30;;;;;;;10.35;3.05;;;;;;;19.45;100.00;100060.09;6286334;22;20019;-57
2021/07/01 11:04:46;;;;;;;15.82;4.85;;;;;;;19.18;100.00;100064.00;6285856;22;20020;-58
2021/07/01 11:07:50;;;;;;;15.70;4.40;;;;;;;18.85;100.00;100069.97;6286101;22;20015;-58
2021/07/01 11:10:54;;;;;;;15.65;5.00;;;;;;;19.19;100.00;100071.16;6286300;22;20016;-58
2021/07/01 11:14:01;;;;;;;14.07;4.60;;;;;;;19.61;100.00;100059.16;6285886;22;20016;-58
2021/07/01 11:17:05;;;;;;;17.48;5.18;;;;;;;20.33;100.00;100055.31;6286084;22;20019;-58
2021/07/01 11:20:26;;;;;;;14.93;4.15;;;;;;;20.89;100.00;100060.03;6285696;22;20019;-59
2021/07/01 11:23:30;;;;;;;15.30;5.63;;;;;;;20.79;100.00;100058.94;6286012;22;20023;-58
2021/07/01 11:26:34;;;;;;;9.35;2.83;;;;;;;20.68;100.00;100045.72;6286258;22;20441;-58
2021/07/01 11:29:46;;;;;;;14.65;4.28;;;;;;;20.75;100.00;100045.09;6285922;22;20022;-58
2021/07/01 11:32:50;;;;;;;16.05;5.20;;;;;;;21.04;100.00;100049.75;6267294;22;20019;-59
2021/07/01 11:36:09;;;;;;;10.48;3.30;;;;;;;21.84;100.00;100045.53;6266430;22;20015;-58
2021/07/01 11:39:16;;;;;;;10.43;2.95;;;;;;;22.55;100.00;100051.59;6285460;22;20020;-58
2021/07/01 11:42:19;;;;;;;7.90;2.95;;;;;;;22.27;100.00;100053.56;6285430;22;20024;-58
2021/07/01 11:45:23;;;;;;;17.88;4.93;;;;;;;21.80;100.00;100050.75;6285824;22;20018;-58
2021/07/01 11:48:30;;;;;;;11.05;3.58;;;;;;;21.42;100.00;100041.03;6286104;22;20448;-58
2021/07/01 11:51:35;;;;;;;12.73;3.30;;;;;;;21.60;100.00;100048.63;6279423;22;20028;-57
2021/07/01 11:54:39;;;;;;;14.85;4.47;;;;;;;21.85;100.00;100044.25;6286421;22;20020;-58
2021/07/01 11:57:42;;;;;;;7.32;2.22;;;;;;;22.09;100.00;100048.88;6285044;22;20019;-61
2021/07/01 12:00:46;;;;;;;9.02;2.33;;;;;;;21.76;100.00;100039.00;6286125;22;20022;-61
2021/07/01 12:03:51;;;;;;;17.27;4.30;;;;;;;21.30;100.00;100042.53;6285733;22;20030;-61
2021/07/01 12:06:59;;;;;;;14.90;4.53;;;;;;;20.83;100.00;100039.56;6286136;22;20020;-61
2021/07/01 12:10:03;;;;;;;18.85;2.55;;;;;;;21.03;100.00;100048.19;6286211;22;20015;-61
2021/07/01 12:13:31;;;;;;;11.68;2.67;;;;;;;21.40;100.00;100035.13;6285931;22;20016;-60
2021/07/01 12:16:40;;;;;;;7.43;1.92;;;;;;;21.65;100.00;100034.34;6267081;22;20008;-61
2021/07/01 12:19:46;;;;;;;6.30;1.77;;;;;;;21.84;100.00;100034.19;6286013;22;20043;-61
2021/07/01 12:22:50;;;;;;;7.03;2.38;;;;;;;21.99;100.00;100027.94;6285904;22;20026;-61
2021/07/01 12:25:56;;;;;;;6.80;2.25;;;;;;;22.14;100.00;100033.78;6286159;22;20023;-60
2021/07/01 12:29:02;;;;;;;7.68;2.10;;;;;;;22.16;100.00;100033.97;6285750;22;20027;-61
2021/07/01 12:32:23;;;;;;;9.02;2.22;;;;;;;22.14;100.00;100028.88;6285895;22;20026;-61
2021/07/01 12:35:40;;;;;;;;;;;;;;;22.20;100.00;100038.00;6286491;22;20045;-61
2021/07/01 12:39:25;;;;;;;11.20;1.73;;;;;;;22.13;100.00;100033.03;6285913;22;20301;-61
2021/07/01 12:42:27;;;;;;;4.90;0.90;;;;;;;21.96;100.00;100024.13;6286532;22;20020;-61
2021/07/01 12:45:32;;;;;;;4.78;1.83;;;;;;;21.98;100.00;100032.88;6287729;22;20019;-60
2021/07/01 12:48:40;;;;;;;9.85;1.13;;;;;;;21.85;100.00;100030.06;6287669;22;20026;-61
2021/07/01 12:51:55;;;;;;;7.15;1.27;;;;;;;21.65;100.00;100022.22;6280807;22;20047;-61
2021/07/01 12:55:00;;;;;;;8.60;1.75;;;;;;;21.54;100.00;100025.31;6287676;22;20070;-64
2021/07/01 12:58:04;;;;;;;6.88;2.10;;;;;;;21.83;100.00;100027.00;6287673;22;20022;-64
2021/07/01 13:01:08;;;;;;;11.95;2.20;;;;;;;21.78;100.00;100030.72;6287698;22;20035;-64
2021/07/01 13:04:11;;;;;;;12.70;3.00;;;;;;;21.84;100.00;100022.88;6287717;22;20015;-64
2021/07/01 13:07:18;;;;;;;8.52;2.13;;;;;;;21.93;100.00;100024.47;6287596;22;20015;-64
2021/07/01 13:10:21;;;;;;;14.60;2.63;;;;;;;21.98;100.00;100021.53;6287493;22;20023;-64
2021/07/01 13:13:25;;;;;;;6.30;1.70;;;;;;;22.07;100.00;100011.78;6287393;22;20020;-63
2021/07/01 13:16:29;;;;;;;9.13;1.23;;;;;;;22.31;100.00;100009.34;6287339;22;20729;-63
2021/07/01 13:19:35;;;;;;;5.40;0.90;;;;;;;21.84;100.00;100011.53;6287202;22;20039;-63
2021/07/01 13:22:41;;;;;;;4.85;1.30;;;;;;;21.41;100.00;100005.47;6287472;22;20444;-63
2021/07/01 13:25:45;;;;;;;5.70;1.40;;;;;;;21.54;100.00;100008.28;6287283;22;20023;-63
2021/07/01 13:28:51;;;;;;;9.00;2.00;;;;;;;21.86;100.00;100014.56;6286924;22;20345;-64
2021/07/01 13:32:06;;;;;;;1.77;0.82;;;;;;;21.97;100.00;100007.88;6287091;22;20042;-64
2021/07/01 13:35:11;;;;;;;6.55;1.30;;;;;;;22.18;100.00;100017.94;6287059;22;20046;-64
2021/07/01 13:38:19;;;;;;;7.05;1.92;;;;;;;22.34;100.00;100002.59;6287122;22;20027;-63
2021/07/01 13:41:26;;;;;;;6.00;1.90;;;;;;;22.56;100.00;100007.72;6286880;22;20337;-63
2021/07/01 13:44:30;;;;;;;9.23;1.98;;;;;;;22.71;100.00;100006.31;6287038;22;20081;-63
2021/07/01 13:47:50;;;;;;;8.27;2.35;;;;;;;22.85;100.00;100004.94;6287040;22;20026;-63
2021/07/01 13:50:57;;;;;;;6.13;1.42;;;;;;;22.74;100.00;99997.44;6283963;22;20030;-64
2021/07/01 13:54:12;;;;;;;8.57;1.70;;;;;;;23.02;100.00;100013.75;6268215;22;20340;-63
2021/07/01 13:57:26;;;;;;;5.78;1.67;;;;;;;22.69;100.00;100003.28;6268605;22;20380;-64
2021/07/01 14:00:42;;;;;;;8.68;2.50;;;;;;;22.74;100.00;99993.84;6287039;22;20478;-64
2021/07/01 14:03:46;;;;;;;5.25;1.42;;;;;;;22.88;100.00;99989.59;6286862;22;20023;-64
2021/07/01 14:06:50;;;;;;;3.95;0.90;;;;;;;22.36;100.00;99997.13;6286648;22;20067;-63
2021/07/01 14:10:10;;;;;;;5.95;1.42;;;;;;;22.45;100.00;99985.28;6287068;22;20018;-65